createdAt,value
2019-05-13T00:02:18.889Z,99.90
2019-05-13T00:04:45.879Z,99.90
2019-05-13T00:07:13.497Z,99.90
2019-05-13T00:09:40.544Z,99.90
2019-05-13T00:12:07.912Z,99.90
2019-05-13T00:14:35.111Z,99.90
2019-05-13T00:17:04.198Z,99.90
2019-05-13T00:19:33.716Z,99.90
2019-05-13T00:22:00.350Z,99.90
2019-05-13T00:24:27.370Z,99.90
2019-05-13T00:26:54.486Z,99.90
2019-05-13T00:29:23.409Z,99.90
2019-05-13T00:31:50.667Z,99.90
2019-05-13T00:34:18.015Z,99.90
2019-05-13T00:36:44.974Z,99.90
2019-05-13T00:39:11.942Z,99.90
2019-05-13T00:41:38.935Z,99.90
2019-05-13T00:44:06.104Z,99.90
2019-05-13T00:46:33.976Z,99.90
2019-05-13T00:49:01.591Z,99.90
2019-05-13T00:51:28.663Z,99.90
2019-05-13T00:53:55.632Z,99.90
2019-05-13T00:56:23.765Z,99.90
2019-05-13T00:58:50.977Z,99.90
2019-05-13T01:01:18.066Z,99.90
2019-05-13T01:03:45.002Z,99.90
2019-05-13T01:06:13.348Z,99.90
2019-05-13T01:08:40.523Z,99.90
2019-05-13T01:11:07.763Z,99.90
2019-05-13T01:13:34.850Z,99.90
2019-05-13T01:16:03.738Z,99.90
2019-05-13T01:18:30.934Z,99.90
2019-05-13T01:20:58.873Z,99.90
2019-05-13T01:23:25.955Z,99.90
2019-05-13T01:25:54.454Z,99.90
2019-05-13T01:28:23.946Z,99.90
2019-05-13T01:30:53.798Z,99.90
2019-05-13T01:33:35.053Z,99.90
2019-05-13T01:36:04.974Z,99.90
2019-05-13T01:38:31.545Z,99.90
2019-05-13T01:40:59.217Z,99.90
2019-05-13T01:43:26.202Z,99.90
2019-05-13T01:45:53.676Z,99.90
2019-05-13T01:48:21.128Z,99.90
2019-05-13T01:50:48.599Z,99.90
2019-05-13T01:53:16.288Z,99.90
2019-05-13T01:55:44.256Z,99.90
2019-05-13T01:58:11.571Z,99.90
2019-05-13T02:00:38.661Z,99.90
2019-05-13T02:03:05.672Z,99.90
2019-05-13T02:05:33.898Z,99.90
2019-05-13T02:08:04.042Z,99.90
2019-05-13T02:10:54.285Z,99.90
2019-05-13T02:13:24.448Z,99.90
2019-05-13T02:15:54.195Z,99.90
2019-05-13T02:18:24.121Z,99.90
2019-05-13T02:20:50.647Z,99.90
2019-05-13T02:23:17.656Z,99.90
2019-05-13T02:25:45.463Z,99.90
2019-05-13T02:28:13.854Z,99.90
2019-05-13T02:30:45.262Z,99.90
2019-05-13T02:33:13.182Z,99.90
2019-05-13T02:35:43.084Z,99.90
2019-05-13T02:38:19.748Z,99.90
2019-05-13T02:40:37.779Z,99.90
2019-05-13T02:43:05.104Z,99.90
2019-05-13T02:45:33.399Z,99.90
2019-05-13T02:48:03.224Z,99.90
2019-05-13T02:50:29.550Z,99.90
2019-05-13T02:52:56.643Z,99.90
2019-05-13T02:55:23.708Z,99.90
2019-05-13T02:57:52.794Z,99.90
2019-05-13T03:00:19.788Z,99.90
2019-05-13T03:02:47.143Z,99.90
2019-05-13T03:05:14.493Z,99.90
2019-05-13T03:07:42.695Z,99.90
2019-05-13T03:10:13.230Z,99.90
2019-05-13T03:12:41.619Z,99.90
2019-05-13T03:15:08.139Z,99.90
2019-05-13T03:17:43.035Z,99.90
2019-05-13T03:20:15.450Z,99.90
2019-05-13T03:22:37.862Z,99.90
2019-05-13T03:25:05.495Z,99.90
2019-05-13T03:27:33.642Z,99.90
2019-05-13T03:30:04.345Z,99.90
2019-05-13T03:32:37.765Z,99.90
2019-05-13T03:35:06.368Z,99.90
2019-05-13T03:37:34.382Z,99.90
2019-05-13T03:40:03.056Z,99.90
2019-05-13T03:42:33.451Z,99.90
2019-05-13T03:45:03.165Z,99.90
2019-05-13T03:47:33.328Z,99.90
2019-05-13T03:50:03.444Z,99.90
2019-05-13T03:52:33.624Z,99.90
2019-05-13T03:55:03.143Z,99.90
2019-05-13T03:57:29.288Z,99.90
2019-05-13T03:59:56.923Z,99.90
2019-05-13T04:02:23.972Z,99.90
2019-05-13T04:04:53.090Z,99.90
2019-05-13T04:07:23.529Z,99.90
2019-05-13T04:09:52.343Z,99.90
2019-05-13T04:12:18.534Z,99.90
2019-05-13T04:14:45.801Z,99.90
2019-05-13T04:17:12.961Z,99.90
2019-05-13T04:19:42.399Z,99.90
2019-05-13T04:22:12.569Z,99.90
2019-05-13T04:24:38.732Z,99.90
2019-05-13T04:27:05.925Z,99.90
2019-05-13T04:29:33.628Z,99.90
2019-05-13T04:32:02.227Z,99.90
2019-05-13T04:34:33.291Z,99.90
2019-05-13T04:37:02.126Z,99.90
2019-05-13T04:39:44.569Z,99.90
2019-05-13T04:41:57.302Z,99.90
2019-05-13T04:44:24.503Z,99.90
2019-05-13T04:46:52.335Z,99.90
2019-05-13T04:49:22.990Z,99.90
2019-05-13T04:51:52.374Z,99.90
2019-05-13T04:54:18.698Z,99.90
2019-05-13T04:56:45.670Z,99.90
2019-05-13T04:59:13.210Z,99.90
2019-05-13T05:02:14.134Z,99.90
2019-05-13T05:04:52.493Z,99.90
2019-05-13T05:07:43.831Z,99.90
2019-05-13T05:10:38.407Z,99.90
2019-05-13T05:13:32.603Z,99.90
2019-05-13T05:16:36.167Z,99.90
2019-05-13T05:19:56.525Z,99.90
2019-05-13T05:22:55.219Z,99.90
2019-05-13T05:25:45.951Z,99.90
2019-05-13T05:28:41.385Z,99.90
2019-05-13T05:31:32.386Z,99.90
2019-05-13T05:34:18.907Z,99.90
2019-05-13T05:37:14.966Z,99.90
2019-05-13T05:39:42.601Z,99.90
2019-05-13T05:42:13.909Z,99.90
2019-05-13T05:44:43.531Z,99.90
2019-05-13T05:47:12.959Z,99.90
2019-05-13T05:49:41.935Z,99.90
2019-05-13T05:52:09.164Z,99.90
2019-05-13T05:54:37.945Z,99.90
2019-05-13T05:57:06.581Z,99.90
2019-05-13T05:59:34.691Z,99.90
2019-05-13T06:02:02.374Z,99.90
2019-05-13T06:04:32.158Z,99.90
2019-05-13T06:06:58.916Z,99.90
2019-05-13T06:09:25.926Z,99.90
2019-05-13T06:11:53.333Z,99.90
2019-05-13T06:14:21.935Z,99.90
2019-05-13T06:16:51.725Z,99.90
2019-05-13T06:19:19.129Z,99.90
2019-05-13T06:21:46.444Z,99.90
2019-05-13T06:24:14.080Z,99.90
2019-05-13T06:26:42.139Z,99.90
2019-05-13T06:29:11.478Z,99.90
2019-05-13T06:31:38.155Z,99.90
2019-05-13T06:34:05.801Z,99.90
2019-05-13T06:36:33.565Z,99.90
2019-05-13T06:39:02.198Z,99.90
2019-05-13T06:41:32.366Z,99.90
2019-05-13T06:44:02.202Z,99.90
2019-05-13T06:46:29.175Z,99.90
2019-05-13T06:48:56.543Z,99.90
2019-05-13T06:54:11.279Z,99.90
2019-05-13T06:56:38.704Z,99.90
2019-05-13T06:59:06.276Z,99.90
2019-05-13T07:01:34.306Z,99.90
2019-05-13T07:04:02.536Z,99.90
2019-05-13T07:06:32.289Z,99.90
2019-05-13T07:09:01.329Z,99.90
2019-05-13T07:11:28.539Z,99.90
2019-05-13T07:13:56.288Z,99.90
2019-05-13T07:16:24.083Z,99.90
2019-05-13T07:18:52.241Z,99.90
2019-05-13T07:21:21.748Z,99.90
2019-05-13T07:23:54.203Z,99.90
2019-05-13T07:26:18.854Z,99.90
2019-05-13T07:28:46.054Z,99.90
2019-05-13T07:31:14.017Z,99.90
2019-05-13T07:33:42.647Z,99.90
2019-05-13T07:36:12.707Z,99.90
2019-05-13T07:38:41.562Z,99.90
2019-05-13T07:41:08.554Z,99.90
2019-05-13T07:43:35.531Z,99.90
2019-05-13T07:46:02.863Z,99.90
2019-05-13T07:48:31.874Z,99.90
2019-05-13T07:51:00.581Z,99.90
2019-05-13T07:53:27.983Z,99.90
2019-05-13T07:55:55.147Z,99.90
2019-05-13T07:58:23.009Z,99.90
2019-05-13T08:00:52.032Z,99.90
2019-05-13T08:03:21.428Z,99.90
2019-05-13T08:05:51.187Z,99.90
2019-05-13T08:08:18.141Z,99.90
2019-05-13T08:10:45.128Z,99.90
2019-05-13T08:13:12.253Z,99.90
2019-05-13T08:15:41.829Z,99.90
2019-05-13T08:18:08.263Z,99.90
2019-05-13T08:20:35.507Z,99.90
2019-05-13T08:23:02.876Z,99.90
2019-05-13T08:25:31.561Z,99.90
2019-05-13T08:28:01.884Z,99.90
2019-05-13T08:30:28.520Z,99.90
2019-05-13T08:32:55.819Z,99.90
2019-05-13T08:35:23.367Z,99.90
2019-05-13T08:37:52.058Z,99.90
2019-05-13T08:40:20.448Z,99.90
2019-05-13T08:42:48.883Z,99.90
2019-05-13T08:45:17.183Z,99.90
2019-05-13T08:47:44.674Z,99.90
2019-05-13T08:50:12.623Z,99.90
2019-05-13T08:52:42.239Z,99.90
2019-05-13T08:55:13.543Z,99.90
2019-05-13T08:57:38.585Z,99.90
2019-05-13T09:00:06.433Z,99.90
2019-05-13T09:02:33.459Z,99.90
2019-05-13T09:05:02.334Z,99.90
2019-05-13T09:07:32.060Z,99.90
2019-05-13T09:10:01.721Z,99.90
2019-05-13T09:12:33.286Z,99.90
2019-05-13T09:14:57.854Z,99.90
2019-05-13T09:17:25.275Z,99.90
2019-05-13T09:19:52.615Z,99.90
2019-05-13T09:22:21.322Z,99.90
2019-05-13T09:24:48.467Z,99.90
2019-05-13T09:27:15.723Z,99.90
2019-05-13T09:29:43.833Z,99.90
2019-05-13T09:32:12.274Z,99.90
2019-05-13T09:34:41.995Z,99.90
2019-05-13T09:37:08.371Z,99.90
2019-05-13T09:39:36.678Z,99.90
2019-05-13T09:42:03.860Z,99.90
2019-05-13T09:44:32.766Z,99.90
2019-05-13T09:47:02.614Z,99.90
2019-05-13T09:49:29.363Z,99.90
2019-05-13T09:51:56.424Z,98.40
2019-05-13T09:54:23.390Z,98.50
2019-05-13T09:56:51.868Z,98.20
2019-05-13T09:59:21.951Z,98.40
2019-05-13T10:01:48.635Z,96.90
2019-05-13T10:04:15.623Z,96.30
2019-05-13T10:06:42.591Z,95.60
2019-05-13T10:09:12.198Z,94.20
2019-05-13T10:11:39.083Z,92.10
2019-05-13T10:14:06.470Z,90.40
2019-05-13T10:16:33.647Z,85.00
2019-05-13T10:19:01.647Z,71.10
2019-05-13T10:21:32.290Z,71.30
2019-05-13T10:23:59.723Z,77.50
2019-05-13T10:26:27.750Z,80.80
2019-05-13T10:28:55.221Z,80.30
2019-05-13T10:31:22.759Z,80.10
2019-05-13T10:33:51.324Z,79.00
2019-05-13T10:36:18.799Z,83.00
2019-05-13T10:38:46.974Z,87.50
2019-05-13T10:41:13.919Z,87.20
2019-05-13T10:43:44.354Z,82.80
2019-05-13T10:46:12.676Z,83.60
2019-05-13T10:48:41.713Z,86.10
2019-05-13T10:51:08.442Z,84.00
2019-05-13T10:53:35.663Z,79.70
2019-05-13T10:56:03.670Z,76.90
2019-05-13T10:58:30.751Z,78.60
2019-05-13T11:00:58.211Z,87.90
2019-05-13T11:03:25.306Z,87.90
2019-05-13T11:05:52.875Z,81.10
2019-05-13T11:08:22.177Z,87.50
2019-05-13T11:10:49.226Z,91.20
2019-05-13T11:13:16.436Z,91.80
2019-05-13T11:15:45.401Z,92.30
2019-05-13T11:18:18.815Z,92.30
2019-05-13T11:20:42.124Z,91.10
2019-05-13T11:23:12.457Z,91.20
2019-05-13T11:25:40.938Z,91.20
2019-05-13T11:28:07.915Z,85.00
2019-05-13T11:30:35.223Z,87.20
2019-05-13T11:33:03.474Z,87.40
2019-05-13T11:35:31.930Z,86.60
2019-05-13T11:38:01.638Z,90.20
2019-05-13T11:40:28.243Z,93.20
2019-05-13T11:42:55.531Z,94.00
2019-05-13T11:45:22.722Z,93.90
2019-05-13T11:47:51.961Z,93.90
2019-05-13T11:50:21.564Z,94.20
2019-05-13T11:52:48.515Z,95.40
2019-05-13T11:55:16.478Z,96.00
2019-05-13T11:57:44.615Z,96.30
2019-05-13T12:00:13.501Z,95.40
2019-05-13T12:02:42.590Z,95.30
2019-05-13T12:05:10.551Z,96.70
2019-05-13T12:07:37.670Z,97.10
2019-05-13T12:10:05.330Z,96.60
2019-05-13T12:12:34.494Z,97.00
2019-05-13T12:15:27.006Z,97.40
2019-05-13T12:17:33.880Z,97.70
2019-05-13T12:20:02.251Z,95.10
2019-05-13T12:22:28.843Z,94.40
2019-05-13T12:24:56.195Z,95.50
2019-05-13T12:27:24.710Z,96.00
2019-05-13T12:29:52.764Z,94.70
2019-05-13T12:32:22.469Z,94.70
2019-05-13T12:34:52.603Z,93.00
2019-05-13T12:37:22.003Z,92.30
2019-05-13T12:39:49.623Z,91.00
2019-05-13T12:42:17.918Z,90.70
2019-05-13T12:45:00.630Z,91.00
2019-05-13T12:47:14.431Z,91.50
2019-05-13T12:49:43.794Z,91.60
2019-05-13T12:52:13.094Z,85.90
2019-05-13T12:54:42.710Z,81.00
2019-05-13T12:57:13.083Z,81.40
2019-05-13T12:59:37.571Z,82.30
2019-05-13T13:02:04.639Z,81.50
2019-05-13T13:04:33.509Z,80.80
2019-05-13T13:07:00.762Z,80.00
2019-05-13T13:09:28.086Z,81.90
2019-05-13T13:11:55.678Z,81.00
2019-05-13T13:14:22.652Z,81.50
2019-05-13T13:16:53.461Z,85.50
2019-05-13T13:19:21.858Z,79.30
2019-05-13T13:21:48.355Z,81.50
2019-05-13T13:24:15.452Z,80.20
2019-05-13T13:26:43.652Z,80.60
2019-05-13T13:29:11.246Z,79.70
2019-05-13T13:31:42.747Z,81.20
2019-05-13T13:34:12.460Z,79.80
2019-05-13T13:36:36.791Z,80.30
2019-05-13T13:39:05.418Z,78.80
2019-05-13T13:41:32.961Z,76.90
2019-05-13T13:44:05.474Z,77.90
2019-05-13T13:46:41.905Z,75.50
2019-05-13T13:48:58.090Z,75.30
2019-05-13T13:51:26.930Z,75.30
2019-05-13T13:56:25.343Z,76.70
2019-05-13T13:58:52.543Z,79.00
2019-05-13T14:01:22.252Z,78.80
2019-05-13T14:03:48.421Z,76.90
2019-05-13T14:07:09.350Z,77.90
2019-05-13T14:07:13.241Z,75.60
2019-05-13T14:08:44.695Z,77.70
2019-05-13T14:11:11.963Z,77.90
2019-05-13T14:13:39.296Z,75.20
2019-05-13T14:16:21.494Z,76.10
2019-05-13T14:18:35.628Z,73.90
2019-05-13T14:21:03.482Z,73.20
2019-05-13T14:23:31.741Z,73.00
2019-05-13T14:25:59.156Z,70.70
2019-05-13T14:28:26.310Z,72.40
2019-05-13T14:30:53.621Z,71.30
2019-05-13T14:33:20.639Z,70.50
2019-05-13T14:35:47.739Z,72.30
2019-05-13T14:38:14.823Z,69.90
2019-05-13T14:40:41.942Z,69.50
2019-05-13T14:43:11.977Z,66.00
2019-05-13T14:45:38.701Z,65.60
2019-05-13T14:48:06.151Z,63.90
2019-05-13T14:50:33.171Z,65.40
2019-05-13T14:53:01.601Z,67.70
2019-05-13T14:55:32.019Z,66.60
2019-05-13T14:58:01.393Z,65.40
2019-05-13T15:00:28.283Z,67.90
2019-05-13T15:02:55.407Z,68.40
2019-05-13T15:05:22.767Z,67.80
2019-05-13T15:07:52.160Z,68.50
2019-05-13T15:10:21.799Z,69.40
2019-05-13T15:12:48.181Z,70.40
2019-05-13T15:15:15.916Z,70.30
2019-05-13T15:17:43.002Z,70.40
2019-05-13T15:20:12.263Z,70.50
2019-05-13T15:22:42.220Z,69.80
2019-05-13T15:25:08.571Z,70.50
2019-05-13T15:27:35.948Z,71.60
2019-05-13T15:30:16.649Z,69.60
2019-05-13T15:32:33.738Z,70.50
2019-05-13T15:35:02.261Z,71.40
2019-05-13T15:37:31.983Z,71.80
2019-05-13T15:39:58.498Z,72.80
2019-05-13T15:42:25.866Z,71.90
2019-05-13T15:44:53.182Z,72.20
2019-05-13T15:47:24.099Z,72.30
2019-05-13T15:49:49.539Z,70.80
2019-05-13T15:52:16.688Z,70.50
2019-05-13T15:54:43.747Z,71.00
2019-05-13T15:57:11.947Z,71.20
2019-05-13T15:59:41.370Z,70.90
2019-05-13T16:02:08.750Z,70.10
2019-05-13T16:04:49.055Z,69.90
2019-05-13T16:07:05.014Z,69.10
2019-05-13T16:09:32.126Z,69.90
2019-05-13T16:12:01.537Z,70.60
2019-05-13T16:14:28.373Z,71.00
2019-05-13T16:16:55.443Z,71.40
2019-05-13T16:19:22.787Z,73.10
2019-05-13T16:21:51.796Z,73.70
2019-05-13T16:24:20.881Z,75.30
2019-05-13T16:26:48.071Z,74.40
2019-05-13T16:29:15.021Z,73.90
2019-05-13T16:31:41.995Z,74.60
2019-05-13T16:34:09.127Z,75.20
2019-05-13T16:36:36.508Z,75.80
2019-05-13T16:39:05.655Z,77.60
2019-05-13T16:41:33.561Z,77.90
2019-05-13T16:44:00.608Z,77.40
2019-05-13T16:46:27.998Z,78.40
2019-05-13T16:48:55.090Z,77.20
2019-05-13T16:51:22.087Z,76.60
2019-05-13T16:53:49.232Z,77.30
2019-05-13T16:56:26.341Z,77.50
2019-05-13T16:58:45.194Z,79.50
2019-05-13T17:01:12.271Z,80.20
2019-05-13T17:03:41.459Z,81.80
2019-05-13T17:06:08.267Z,82.80
2019-05-13T17:08:35.617Z,83.50
2019-05-13T17:11:03.267Z,83.40
2019-05-13T17:13:31.508Z,84.00
2019-05-13T17:15:58.887Z,83.40
2019-05-13T17:18:25.889Z,83.20
2019-05-13T17:20:53.681Z,84.20
2019-05-13T17:23:22.150Z,85.40
2019-05-13T17:25:51.797Z,85.50
2019-05-13T17:28:18.733Z,85.50
2019-05-13T17:30:45.874Z,85.60
2019-05-13T17:33:13.504Z,84.20
2019-05-13T17:35:41.883Z,84.30
2019-05-13T17:38:11.182Z,84.10
2019-05-13T17:40:38.007Z,82.70
2019-05-13T17:43:05.055Z,84.60
2019-05-13T17:45:32.114Z,84.50
2019-05-13T17:48:00.945Z,84.30
2019-05-13T17:50:38.252Z,84.80
2019-05-13T17:53:05.638Z,83.90
2019-05-13T17:55:32.647Z,84.40
2019-05-13T17:58:01.385Z,85.00
2019-05-13T18:00:28.678Z,87.60
2019-05-13T18:02:55.868Z,90.90
2019-05-13T18:05:23.135Z,92.50
2019-05-13T18:07:51.335Z,94.30
2019-05-13T18:10:18.664Z,95.90
2019-05-13T18:12:45.771Z,97.30
2019-05-13T18:15:12.894Z,99.10
2019-05-13T18:17:41.808Z,99.90
2019-05-13T18:20:09.642Z,99.90
2019-05-13T18:22:37.241Z,99.90
2019-05-13T18:25:04.511Z,99.90
2019-05-13T18:27:32.392Z,99.90
2019-05-13T18:30:01.948Z,99.90
2019-05-13T18:32:28.963Z,99.90
2019-05-13T18:34:56.087Z,99.90
2019-05-13T18:37:23.054Z,99.90
2019-05-13T18:39:52.035Z,99.90
2019-05-13T18:42:19.143Z,99.90
2019-05-13T18:44:46.869Z,99.90
2019-05-13T18:47:13.939Z,99.90
2019-05-13T18:49:42.367Z,99.90
2019-05-13T18:52:11.697Z,99.90
2019-05-13T18:54:41.913Z,99.90
2019-05-13T18:57:08.605Z,99.90
2019-05-13T18:59:35.773Z,99.90
2019-05-13T19:02:02.878Z,99.90
2019-05-13T19:04:31.286Z,99.90
2019-05-13T19:06:59.219Z,99.90
2019-05-13T19:09:26.360Z,99.90
2019-05-13T19:11:54.054Z,99.90
2019-05-13T19:14:21.738Z,99.90
2019-05-13T19:16:49.197Z,99.90
2019-05-13T19:19:20.101Z,99.90
2019-05-13T19:21:46.627Z,99.90
2019-05-13T19:24:14.261Z,99.90
2019-05-13T19:26:41.769Z,99.90
2019-05-13T19:29:11.475Z,99.90
2019-05-13T19:31:41.775Z,99.90
2019-05-13T19:34:09.221Z,99.90
2019-05-13T19:36:36.610Z,99.90
2019-05-13T19:39:05.475Z,99.90
2019-05-13T19:41:33.079Z,99.90
2019-05-13T19:44:01.568Z,99.90
2019-05-13T19:46:31.259Z,99.90
2019-05-13T19:48:58.363Z,99.90
2019-05-13T19:51:28.273Z,99.90
2019-05-13T19:53:56.971Z,99.90
2019-05-13T19:56:24.453Z,99.90
2019-05-13T19:58:51.722Z,99.90
2019-05-13T20:01:21.664Z,99.90
2019-05-13T20:03:51.567Z,99.90
2019-05-13T20:06:21.315Z,99.90
2019-05-13T20:08:48.560Z,99.90
2019-05-13T20:11:16.541Z,99.90
2019-05-13T20:13:44.801Z,99.90
2019-05-13T20:16:12.419Z,99.90
2019-05-13T20:18:41.398Z,99.90
2019-05-13T20:21:11.189Z,99.90
2019-05-13T20:23:41.368Z,99.90
2019-05-13T20:26:08.923Z,99.90
2019-05-13T20:28:36.958Z,99.90
2019-05-13T20:31:04.470Z,99.90
2019-05-13T20:33:32.282Z,99.90
2019-05-13T20:36:01.564Z,99.90
2019-05-13T20:38:29.060Z,99.90
2019-05-13T20:40:57.519Z,99.90
2019-05-13T20:43:24.727Z,99.90
2019-05-13T20:45:51.857Z,99.90
2019-05-13T20:48:21.080Z,99.90
2019-05-13T20:50:48.206Z,99.90
2019-05-13T20:53:15.518Z,99.90
2019-05-13T20:55:42.464Z,99.90
2019-05-13T20:58:12.530Z,99.90
2019-05-13T21:00:38.844Z,99.90
2019-05-13T21:03:05.927Z,99.90
2019-05-13T21:05:33.247Z,99.90
2019-05-13T21:08:01.724Z,99.90
2019-05-13T21:10:28.930Z,99.90
2019-05-13T21:12:56.455Z,99.90
2019-05-13T21:15:23.579Z,99.90
2019-05-13T21:17:51.609Z,99.90
2019-05-13T21:20:23.202Z,99.90
2019-05-13T21:22:47.716Z,99.90
2019-05-13T21:25:15.251Z,99.90
2019-05-13T21:27:42.215Z,99.90
2019-05-13T21:30:11.864Z,99.90
2019-05-13T21:32:42.861Z,99.90
2019-05-13T21:35:11.986Z,99.90
2019-05-13T21:37:39.712Z,99.90
2019-05-13T21:40:07.810Z,99.90
2019-05-13T21:42:35.193Z,99.90
2019-05-13T21:45:02.383Z,99.90
2019-05-13T21:47:31.217Z,99.90
2019-05-13T21:49:58.891Z,99.90
2019-05-13T21:52:26.015Z,99.90
2019-05-13T21:54:53.354Z,99.90
2019-05-13T21:57:20.358Z,99.90
2019-05-13T21:59:47.392Z,99.90
2019-05-13T22:02:14.892Z,99.90
2019-05-13T22:04:42.333Z,99.90
2019-05-13T22:07:11.933Z,99.90
2019-05-13T22:09:38.422Z,99.90
2019-05-13T22:12:05.490Z,99.90
2019-05-13T22:14:32.487Z,99.90
2019-05-13T22:17:01.491Z,99.90
2019-05-13T22:19:28.447Z,99.90
2019-05-13T22:21:57.077Z,99.90
2019-05-13T22:24:24.098Z,99.90
2019-05-13T22:26:51.486Z,99.90
2019-05-13T22:29:18.495Z,99.90
2019-05-13T22:31:45.950Z,99.90
2019-05-13T22:34:12.968Z,99.90
2019-05-13T22:36:41.322Z,99.90
2019-05-13T22:39:08.388Z,99.90
2019-05-13T22:41:35.763Z,99.90
2019-05-13T22:44:02.841Z,99.90
2019-05-13T22:46:32.055Z,99.90
2019-05-13T22:49:01.120Z,99.90
2019-05-13T22:51:28.464Z,99.90
2019-05-13T22:53:55.574Z,99.90
2019-05-13T22:56:22.654Z,99.90
2019-05-13T22:58:51.552Z,99.90
2019-05-13T23:01:18.516Z,99.90
2019-05-13T23:03:45.674Z,99.90
2019-05-13T23:06:13.211Z,99.90
2019-05-13T23:08:40.330Z,99.90
2019-05-13T23:11:07.319Z,99.90
2019-05-13T23:13:34.848Z,99.90
2019-05-13T23:16:02.529Z,99.90
2019-05-13T23:18:31.616Z,99.90
2019-05-13T23:20:58.615Z,99.90
2019-05-13T23:23:25.894Z,99.90
2019-05-13T23:25:52.886Z,99.90
2019-05-13T23:28:21.675Z,99.90
2019-05-13T23:30:51.013Z,99.90
2019-05-13T23:33:17.776Z,99.90
2019-05-13T23:35:45.120Z,99.90
2019-05-13T23:38:12.382Z,99.90
2019-05-13T23:40:39.367Z,99.90
2019-05-13T23:43:06.771Z,99.90
2019-05-13T23:45:34.453Z,99.90
2019-05-13T23:48:02.253Z,99.90
2019-05-13T23:50:29.330Z,99.90
2019-05-13T23:52:56.326Z,99.90
2019-05-13T23:55:23.328Z,99.90
2019-05-13T23:57:52.445Z,99.90
